Time;durP1;ratioP1;P1;durP2;ratioP2;P2;SDS_P1;SDS_P2;PMS_P1;PMS_P2;Temp;Humidity;BMP_temperature;BMP_pressure;BME280_temperature;BME280_humidity;BME280_pressure;Samples;Min_cycle;Max_cycle;Signal;HPM_P1;HPM_P2
2021/10/02 00:34:43;;;;;;;2.10;2.00;;;22.80;95.60;;;;;;5075677;28;20146;-71
2021/10/02 00:37:37;;;;;;;2.33;2.22;;;22.90;95.50;;;;;;5075144;28;20017;-73
2021/10/02 00:45:40;;;;;;;2.78;2.58;;;23.60;94.80;;;;;;5075515;28;20032;-72
2021/10/02 00:48:09;;;;;;;2.63;2.42;;;23.60;95.70;;;;;;5075157;28;20055;-72
2021/10/02 00:50:38;;;;;;;2.40;2.30;;;23.60;95.20;;;;;;5073989;28;20020;-72
2021/10/02 00:53:05;;;;;;;2.10;2.00;;;23.60;95.30;;;;;;5073594;28;20016;-73
2021/10/02 00:55:32;;;;;;;2.60;2.40;;;23.60;94.60;;;;;;5074993;28;20040;-73
2021/10/02 00:58:00;;;;;;;2.50;2.40;;;23.90;94.80;;;;;;5075014;28;20024;-73
2021/10/02 01:00:27;;;;;;;2.40;2.25;;;24.40;94.60;;;;;;5075025;28;20413;-73
2021/10/02 01:03:13;;;;;;;2.40;2.30;;;24.20;93.20;;;;;;5075054;28;20025;-72
2021/10/02 01:06:00;;;;;;;2.30;2.20;;;24.00;93.60;;;;;;5073460;28;20081;-73
2021/10/02 01:08:36;;;;;;;2.35;2.25;;;23.70;93.50;;;;;;5074870;28;20038;-72
2021/10/02 01:11:17;;;;;;;2.40;2.30;;;23.00;94.30;;;;;;5074574;28;20016;-73
2021/10/02 01:14:02;;;;;;;2.20;2.10;;;22.60;95.30;;;;;;5073381;28;20025;-73
2021/10/02 01:16:38;;;;;;;2.25;2.15;;;22.50;95.00;;;;;;5072852;28;20119;-73
2021/10/02 01:19:33;;;;;;;2.83;2.58;;;22.50;95.50;;;;;;5074773;28;20016;-73
2021/10/02 01:22:18;;;;;;;2.50;2.30;;;22.60;95.00;;;;;;5058499;28;20037;-73
2021/10/02 01:25:06;;;;;;;2.40;2.30;;;23.10;94.60;;;;;;5073385;28;20024;-73
2021/10/02 01:27:43;;;;;;;2.38;2.22;;;23.30;94.10;;;;;;5073325;28;20114;-73
2021/10/02 01:30:18;;;;;;;2.20;2.10;;;23.30;95.10;;;;;;5074595;28;20043;-73
2021/10/02 01:32:58;;;;;;;2.10;2.00;;;23.10;94.40;;;;;;5074582;28;20020;-72
2021/10/02 01:35:45;;;;;;;2.42;2.15;;;23.50;93.30;;;;;;5074530;28;20419;-73
2021/10/02 01:49:17;;;;;;;2.30;2.20;;;23.80;92.60;;;;;;5063713;28;20036;-73
2021/10/02 01:51:46;;;;;;;2.63;2.40;;;24.10;92.50;;;;;;5074061;28;20031;-73
2021/10/02 01:54:15;;;;;;;2.33;2.22;;;24.70;91.70;;;;;;5074089;28;20029;-73
2021/10/02 01:56:45;;;;;;;2.10;1.90;;;24.90;91.40;;;;;;5073892;28;20020;-73
2021/10/02 01:59:14;;;;;;;2.50;2.40;;;24.70;92.00;;;;;;5074091;28;20469;-73
2021/10/02 02:01:47;;;;;;;2.80;2.70;;;24.10;92.50;;;;;;5073973;28;20436;-73
2021/10/02 02:04:15;;;;;;;2.90;2.70;;;23.90;93.30;;;;;;5074011;28;20017;-73
2021/10/02 02:06:44;;;;;;;2.20;2.10;;;24.00;93.60;;;;;;5072502;28;20074;-73
2021/10/02 02:09:15;;;;;;;2.60;2.40;;;24.60;92.30;;;;;;5072538;28;20027;-73
2021/10/02 02:11:44;;;;;;;2.70;2.50;;;24.60;92.50;;;;;;5073826;28;20435;-73
2021/10/02 02:14:14;;;;;;;3.10;2.90;;;24.80;92.10;;;;;;5073628;28;20032;-74
2021/10/02 02:16:43;;;;;;;2.55;2.35;;;24.50;91.90;;;;;;5071952;28;20041;-74
2021/10/02 02:19:12;;;;;;;2.60;2.40;;;24.10;92.50;;;;;;5072615;28;20055;-73
2021/10/02 02:21:40;;;;;;;2.15;2.05;;;24.10;92.70;;;;;;5072325;28;20077;-74
2021/10/02 02:24:07;;;;;;;2.30;2.20;;;24.00;92.60;;;;;;5072848;28;20394;-73
2021/10/02 02:26:36;;;;;;;2.47;2.28;;;24.20;93.00;;;;;;5071928;28;20165;-74
2021/10/02 02:29:05;;;;;;;2.92;2.70;;;24.40;93.10;;;;;;5072060;28;20444;-74
2021/10/02 02:31:33;;;;;;;2.75;2.50;;;24.30;94.00;;;;;;5073539;28;20024;-74
2021/10/02 02:34:01;;;;;;;2.95;2.65;;;24.20;94.30;;;;;;5073480;28;20393;-74
2021/10/02 02:36:32;;;;;;;2.70;2.50;;;24.30;94.90;;;;;;5073162;28;20031;-74
2021/10/02 02:38:59;;;;;;;;;;;24.10;95.30;;;;;;5073811;28;20028;-75
2021/10/02 02:41:26;;;;;;;3.00;2.80;;;23.90;95.80;;;;;;5073279;28;19905;-75
2021/10/02 02:43:53;;;;;;;4.05;3.33;;;23.50;95.80;;;;;;5073241;28;20487;-76
2021/10/02 02:46:41;;;;;;;4.25;2.85;;;23.50;96.10;;;;;;5073269;28;20500;-74
2021/10/02 02:49:44;;;;;;;2.75;2.60;;;23.30;97.00;;;;;;5071799;28;20032;-74
2021/10/02 02:52:46;;;;;;;3.40;3.10;;;23.10;96.90;;;;;;5071796;28;20020;-74
2021/10/02 02:55:16;;;;;;;3.10;2.80;;;22.90;97.10;;;;;;5048717;28;20111;-73
2021/10/02 02:57:47;;;;;;;3.42;2.65;;;22.60;97.70;;;;;;5071804;28;20020;-73
2021/10/02 03:00:18;;;;;;;3.85;2.72;;;22.60;97.90;;;;;;5070603;28;20048;-73
2021/10/02 03:02:56;;;;;;;3.08;2.53;;;22.50;98.20;;;;;;5072371;28;20044;-73
2021/10/02 03:05:25;;;;;;;2.53;2.33;;;22.50;98.30;;;;;;5071583;28;20024;-73
2021/10/02 03:08:02;;;;;;;4.57;2.70;;;22.40;98.20;;;;;;5070361;28;20025;-74
2021/10/02 03:10:31;;;;;;;2.80;2.60;;;22.30;98.60;;;;;;5071904;28;20099;-71
2021/10/02 03:13:04;;;;;;;3.53;2.80;;;22.50;98.70;;;;;;5071929;28;20024;-71
2021/10/02 03:15:32;;;;;;;6.15;3.28;;;22.50;98.40;;;;;;5071120;28;20032;-73
2021/10/02 03:18:00;;;;;;;4.95;3.10;;;22.40;98.80;;;;;;5071723;28;20399;-73
2021/10/02 03:20:31;;;;;;;3.50;3.00;;;22.30;98.60;;;;;;5071413;28;20095;-73
2021/10/02 03:22:59;;;;;;;3.15;2.85;;;22.10;99.30;;;;;;5070289;28;20020;-73
2021/10/02 03:25:29;;;;;;;3.60;2.90;;;21.90;98.70;;;;;;5071548;28;20028;-73
2021/10/02 03:27:59;;;;;;;3.58;3.08;;;21.80;99.00;;;;;;5070180;28;20021;-73
2021/10/02 03:30:30;;;;;;;4.03;3.30;;;21.80;99.10;;;;;;5071565;28;20130;-74
2021/10/02 03:32:58;;;;;;;4.47;3.17;;;21.80;99.30;;;;;;5071796;28;20107;-73
2021/10/02 03:35:26;;;;;;;2.92;2.75;;;21.80;98.90;;;;;;5073647;28;20017;-74
2021/10/02 03:37:53;;;;;;;2.97;2.78;;;21.90;98.90;;;;;;5074083;28;20021;-75
2021/10/02 03:40:22;;;;;;;3.13;2.80;;;22.00;98.40;;;;;;5075520;28;20017;-75
2021/10/02 03:42:55;;;;;;;3.10;2.90;;;22.30;98.90;;;;;;5075672;28;20017;-74
2021/10/02 03:45:26;;;;;;;2.95;2.75;;;22.70;98.50;;;;;;5074270;28;20426;-74
2021/10/02 03:47:53;;;;;;;2.88;2.67;;;23.50;97.30;;;;;;5074146;28;20461;-74
2021/10/02 03:50:21;;;;;;;4.25;2.35;;;24.20;96.60;;;;;;5075296;28;20028;-73
2021/10/02 03:52:48;;;;;;;3.17;2.45;;;24.10;95.80;;;;;;5075148;28;20023;-75
2021/10/02 03:55:17;;;;;;;3.42;2.38;;;24.00;95.70;;;;;;5073795;28;20025;-74
2021/10/02 03:57:45;;;;;;;2.72;2.53;;;24.40;95.80;;;;;;5073439;28;20044;-74
2021/10/02 04:00:14;;;;;;;2.70;2.50;;;24.70;95.00;;;;;;5075472;28;20119;-74
2021/10/02 04:02:42;;;;;;;2.63;2.47;;;24.70;94.50;;;;;;5073636;28;20017;-75
2021/10/02 04:05:10;;;;;;;2.72;2.53;;;24.60;94.50;;;;;;5074855;28;20017;-74
2021/10/02 04:07:42;;;;;;;3.00;2.50;;;24.60;94.50;;;;;;5075226;28;20029;-74
2021/10/02 04:10:10;;;;;;;4.18;2.80;;;24.20;95.80;;;;;;5073688;28;20119;-73
2021/10/02 04:12:38;;;;;;;3.83;2.90;;;24.30;95.90;;;;;;5074894;28;20052;-74
2021/10/02 04:15:06;;;;;;;5.03;3.00;;;24.40;96.50;;;;;;5074806;28;20512;-73
2021/10/02 04:17:34;;;;;;;3.10;2.50;;;24.30;96.00;;;;;;5074944;28;20035;-74
2021/10/02 04:20:01;;;;;;;3.22;2.85;;;24.40;96.00;;;;;;5073302;28;20025;-74
2021/10/02 04:22:29;;;;;;;4.43;2.70;;;24.40;96.40;;;;;;5073454;28;20107;-72
2021/10/02 04:24:56;;;;;;;3.55;3.05;;;24.50;97.20;;;;;;5075002;28;20474;-73
2021/10/02 04:27:23;;;;;;;3.13;2.90;;;24.70;97.00;;;;;;5075420;28;20021;-73
2021/10/02 04:29:51;;;;;;;4.18;3.45;;;24.60;96.80;;;;;;5075600;28;20021;-74
2021/10/02 04:32:18;;;;;;;3.38;2.90;;;24.40;97.20;;;;;;5073998;28;20044;-72
2021/10/02 04:34:45;;;;;;;4.72;2.78;;;24.30;97.80;;;;;;5074060;28;20414;-73
2021/10/02 04:37:13;;;;;;;5.85;2.67;;;24.70;97.70;;;;;;5074052;28;20067;-74
2021/10/02 04:39:40;;;;;;;3.70;2.60;;;24.90;97.10;;;;;;5074077;28;20021;-74
2021/10/02 04:42:07;;;;;;;5.82;4.35;;;25.20;97.40;;;;;;5075416;28;20020;-73
2021/10/02 04:44:35;;;;;;;5.15;3.75;;;25.00;97.60;;;;;;5075488;28;20071;-76
2021/10/02 04:47:02;;;;;;;3.42;3.05;;;24.80;97.20;;;;;;5074871;28;20044;-74
2021/10/02 04:49:29;;;;;;;2.97;2.75;;;23.90;97.80;;;;;;5075496;28;20392;-74
2021/10/02 04:51:57;;;;;;;2.92;2.70;;;23.20;97.50;;;;;;5075382;28;20028;-75
2021/10/02 04:54:24;;;;;;;3.13;2.42;;;22.70;98.10;;;;;;5074068;28;20370;-72
2021/10/02 04:56:51;;;;;;;3.22;2.60;;;22.30;98.30;;;;;;5075281;28;20485;-72
2021/10/02 04:59:19;;;;;;;4.40;3.13;;;22.10;99.90;;;;;;5075314;28;20423;-72
2021/10/02 05:01:46;;;;;;;3.83;2.92;;;21.70;99.90;;;;;;5075220;28;20028;-73
2021/10/02 05:04:13;;;;;;;3.83;3.00;;;21.50;99.90;;;;;;5075207;28;20021;-72
2021/10/02 05:06:41;;;;;;;3.85;3.17;;;21.30;99.90;;;;;;5075182;28;20029;-71
2021/10/02 05:09:08;;;;;;;3.15;2.90;;;21.20;99.90;;;;;;5073880;28;20111;-70
2021/10/02 05:11:35;;;;;;;3.15;2.83;;;21.20;99.90;;;;;;5073767;28;20021;-70
2021/10/02 05:14:03;;;;;;;3.90;3.00;;;20.90;99.90;;;;;;5073713;28;20033;-70
2021/10/02 05:16:30;;;;;;;3.40;3.10;;;20.70;99.90;;;;;;5074869;28;20056;-70
2021/10/02 05:18:57;;;;;;;3.50;3.30;;;20.50;99.90;;;;;;5073498;28;20020;-71
2021/10/02 05:21:25;;;;;;;4.68;4.18;;;20.00;99.90;;;;;;5073509;28;20473;-71
2021/10/02 05:23:55;;;;;;;6.40;5.90;;;19.80;99.90;;;;;;5073244;28;20070;-71
2021/10/02 05:26:22;;;;;;;7.28;6.45;;;19.60;99.90;;;;;;5074939;28;20021;-71
2021/10/02 05:28:50;;;;;;;7.97;7.18;;;19.50;99.90;;;;;;5074544;28;20032;-70
2021/10/02 05:31:17;;;;;;;11.98;8.85;;;19.20;99.90;;;;;;5074618;28;20025;-71
2021/10/02 05:33:45;;;;;;;7.78;7.13;;;19.00;99.90;;;;;;5073285;28;20024;-71
2021/10/02 05:36:12;;;;;;;8.45;7.85;;;18.70;99.90;;;;;;5073089;28;20372;-70
2021/10/02 05:38:39;;;;;;;9.48;8.57;;;18.60;99.90;;;;;;5073049;28;20112;-70
2021/10/02 05:41:07;;;;;;;10.32;9.52;;;18.50;99.90;;;;;;5074546;28;20039;-72
2021/10/02 05:43:34;;;;;;;10.68;9.85;;;18.60;99.90;;;;;;5074251;28;20420;-71
2021/10/02 05:46:01;;;;;;;10.10;9.45;;;18.60;99.90;;;;;;5074301;28;20137;-70
2021/10/02 05:48:29;;;;;;;10.15;9.55;;;18.60;99.90;;;;;;5074326;28;20024;-71
2021/10/02 05:50:56;;;;;;;10.02;9.48;;;18.70;99.90;;;;;;5072972;28;20085;-72
2021/10/02 05:53:23;;;;;;;11.25;10.63;;;18.80;99.90;;;;;;5074088;28;20043;-71
2021/10/02 05:55:51;;;;;;;11.57;10.88;;;18.80;99.90;;;;;;5074004;28;20024;-71
2021/10/02 05:58:18;;;;;;;11.93;11.02;;;18.70;99.90;;;;;;5072872;28;20027;-70
2021/10/02 06:00:46;;;;;;;12.30;11.50;;;18.70;99.90;;;;;;5074008;28;20503;-71
2021/10/02 06:03:13;;;;;;;12.60;11.80;;;18.60;99.90;;;;;;5072665;28;20171;-71
2021/10/02 06:05:41;;;;;;;12.38;11.55;;;18.50;99.90;;;;;;5073846;28;20028;-71
2021/10/02 06:08:14;;;;;;;12.32;11.50;;;18.60;99.90;;;;;;5072555;28;20044;-71
2021/10/02 06:10:41;;;;;;;12.48;11.48;;;18.60;99.90;;;;;;5073744;28;20013;-72
2021/10/02 06:13:08;;;;;;;12.50;11.70;;;18.60;99.90;;;;;;5073715;28;20024;-71
2021/10/02 06:15:36;;;;;;;11.55;10.75;;;18.60;99.90;;;;;;5073499;28;20071;-71
2021/10/02 06:18:03;;;;;;;11.43;10.82;;;18.70;99.90;;;;;;5073616;28;20016;-71
2021/10/02 06:20:31;;;;;;;11.25;10.65;;;18.80;99.90;;;;;;5073528;28;20035;-72
2021/10/02 06:22:58;;;;;;;11.23;10.55;;;19.00;99.90;;;;;;5072560;28;20032;-70
2021/10/02 06:25:26;;;;;;;11.13;10.52;;;19.50;99.90;;;;;;5072102;28;20107;-69
2021/10/02 06:27:53;;;;;;;11.32;10.57;;;19.80;99.90;;;;;;5073462;28;20061;-70
2021/10/02 06:30:20;;;;;;;11.55;10.85;;;19.90;99.90;;;;;;5072080;28;20020;-70
2021/10/02 06:32:48;;;;;;;11.57;10.95;;;19.90;99.90;;;;;;5073365;28;20025;-68
2021/10/02 06:35:15;;;;;;;10.93;10.25;;;19.60;99.90;;;;;;5073372;28;20029;-71
2021/10/02 06:37:44;;;;;;;10.35;9.60;;;19.60;99.90;;;;;;5073230;28;20028;-71
2021/10/02 06:40:13;;;;;;;10.93;10.43;;;19.10;99.90;;;;;;5073232;28;20103;-71
2021/10/02 06:42:41;;;;;;;10.75;10.07;;;18.90;99.90;;;;;;5071831;28;20024;-71
2021/10/02 06:45:09;;;;;;;9.52;9.07;;;18.70;99.90;;;;;;5073113;28;20027;-71
2021/10/02 06:47:37;;;;;;;10.57;9.98;;;18.70;99.90;;;;;;5071648;28;20031;-72
2021/10/02 06:50:05;;;;;;;10.02;9.43;;;18.50;99.90;;;;;;5073027;28;20020;-72
2021/10/02 06:52:33;;;;;;;9.68;9.25;;;18.30;99.90;;;;;;5073061;28;20027;-71
2021/10/02 06:55:00;;;;;;;10.00;9.50;;;18.10;99.90;;;;;;5071627;28;20507;-71
2021/10/02 06:57:28;;;;;;;10.48;9.70;;;18.00;99.90;;;;;;5071590;28;20115;-71
2021/10/02 06:59:56;;;;;;;9.98;9.38;;;17.80;99.90;;;;;;5071682;28;20098;-71
2021/10/02 07:02:23;;;;;;;10.90;10.30;;;17.80;99.90;;;;;;5072860;28;20028;-71
2021/10/02 07:04:52;;;;;;;10.45;9.85;;;17.80;99.90;;;;;;5072878;28;20020;-72
2021/10/02 07:07:19;;;;;;;11.32;10.40;;;17.70;99.90;;;;;;5073095;28;20020;-72
2021/10/02 07:09:50;;;;;;;11.02;10.30;;;17.60;99.90;;;;;;5072516;28;20396;-70
2021/10/02 07:12:17;;;;;;;11.32;10.50;;;17.50;99.90;;;;;;5071550;28;20112;-71
2021/10/02 07:14:45;;;;;;;11.05;10.20;;;17.40;99.90;;;;;;5072839;28;20182;-72
2021/10/02 07:17:13;;;;;;;11.13;10.52;;;17.40;99.90;;;;;;5072555;28;20051;-72
2021/10/02 07:19:41;;;;;;;11.40;10.65;;;17.30;99.90;;;;;;5072638;28;20465;-72
2021/10/02 07:22:08;;;;;;;12.52;11.50;;;17.20;99.90;;;;;;5071358;28;20021;-70
2021/10/02 07:24:36;;;;;;;12.00;11.18;;;17.20;99.90;;;;;;5072931;28;20488;-72
2021/10/02 07:27:04;;;;;;;12.32;11.43;;;17.20;99.90;;;;;;5072690;28;20026;-72
2021/10/02 07:29:31;;;;;;;13.30;12.32;;;17.10;99.90;;;;;;5071361;28;20074;-73
2021/10/02 07:31:59;;;;;;;13.02;12.10;;;17.00;99.90;;;;;;5072722;28;20047;-72
2021/10/02 07:34:26;;;;;;;12.77;12.00;;;17.00;99.90;;;;;;5072662;28;20016;-73
2021/10/02 07:36:54;;;;;;;12.50;11.63;;;16.90;99.90;;;;;;5071227;28;20029;-71
2021/10/02 07:39:21;;;;;;;13.50;12.63;;;16.80;99.90;;;;;;5071182;28;20036;-71
2021/10/02 07:41:49;;;;;;;13.38;12.48;;;16.90;99.90;;;;;;5071164;28;20061;-74
2021/10/02 07:44:25;;;;;;;13.65;12.85;;;16.90;99.90;;;;;;5072393;28;20031;-73
2021/10/02 07:46:55;;;;;;;14.40;13.40;;;16.90;99.90;;;;;;5072543;28;20031;-75
2021/10/02 07:49:24;;;;;;;13.98;13.27;;;16.90;99.90;;;;;;5072592;28;20036;-72
2021/10/02 07:51:52;;;;;;;13.75;12.90;;;16.90;99.90;;;;;;5072481;28;20041;-73
2021/10/02 07:54:20;;;;;;;14.05;13.32;;;16.80;99.90;;;;;;5072525;28;20025;-72
2021/10/02 07:56:47;;;;;;;15.30;14.43;;;16.80;99.90;;;;;;5072484;28;20021;-71
2021/10/02 07:59:16;;;;;;;16.15;15.05;;;16.80;99.90;;;;;;5071092;28;20074;-73
2021/10/02 08:01:44;;;;;;;16.02;15.00;;;16.80;99.90;;;;;;5072485;28;20017;-72
2021/10/02 08:04:12;;;;;;;16.63;15.60;;;16.80;99.90;;;;;;5072365;28;20103;-71
2021/10/02 08:06:42;;;;;;;16.02;15.05;;;16.80;99.90;;;;;;5071052;28;20035;-72
2021/10/02 08:09:10;;;;;;;16.02;15.10;;;16.80;99.90;;;;;;5072401;28;20055;-71
2021/10/02 08:11:38;;;;;;;15.75;14.95;;;16.80;99.90;;;;;;5072326;28;20025;-71
2021/10/02 08:14:07;;;;;;;16.20;15.15;;;16.80;99.90;;;;;;5070928;28;20024;-73
2021/10/02 08:16:39;;;;;;;16.80;15.73;;;16.80;99.90;;;;;;5072089;28;20045;-73
2021/10/02 08:19:07;;;;;;;16.05;15.13;;;16.70;99.90;;;;;;5071072;28;20417;-72
2021/10/02 08:21:38;;;;;;;16.48;15.40;;;16.70;99.90;;;;;;5071402;28;20081;-72
2021/10/02 08:24:07;;;;;;;15.30;14.50;;;16.70;99.90;;;;;;5074631;28;20017;-72
2021/10/02 08:26:34;;;;;;;15.48;14.52;;;16.60;99.90;;;;;;5074382;28;20063;-71
2021/10/02 08:29:04;;;;;;;16.42;15.52;;;16.50;99.90;;;;;;5074403;28;20501;-71
2021/10/02 08:31:33;;;;;;;16.90;15.70;;;16.50;99.90;;;;;;5074371;28;20020;-72
2021/10/02 08:34:00;;;;;;;16.73;15.52;;;16.40;99.90;;;;;;5075563;28;20027;-72
2021/10/02 08:36:28;;;;;;;16.65;15.75;;;16.40;99.90;;;;;;5075458;28;20027;-71
2021/10/02 08:38:55;;;;;;;17.48;16.40;;;16.40;99.90;;;;;;5075555;28;20021;-71
2021/10/02 08:41:25;;;;;;;16.33;15.48;;;16.40;99.90;;;;;;5075614;28;20389;-73
2021/10/02 08:43:53;;;;;;;16.27;15.43;;;16.30;99.90;;;;;;5075480;28;20048;-71
2021/10/02 08:46:21;;;;;;;17.10;16.08;;;16.30;99.90;;;;;;5075385;28;20067;-71
2021/10/02 08:49:10;;;;;;;17.00;15.80;;;16.30;99.90;;;;;;5074156;28;20054;-72
2021/10/02 08:51:41;;;;;;;15.88;15.07;;;16.30;99.90;;;;;;5075327;28;20032;-71
2021/10/02 08:54:10;;;;;;;16.85;15.93;;;16.20;99.90;;;;;;5075309;28;20051;-80
2021/10/02 08:56:39;;;;;;;17.27;16.27;;;16.10;99.90;;;;;;5074819;28;20025;-74
2021/10/02 08:59:06;;;;;;;17.17;15.98;;;16.00;99.90;;;;;;5073451;28;20493;-78
2021/10/02 09:01:34;;;;;;;18.40;17.15;;;16.00;99.90;;;;;;5075218;28;20019;-78
2021/10/02 09:04:01;;;;;;;18.77;17.50;;;15.90;99.90;;;;;;5075025;28;20056;-76
2021/10/02 09:06:29;;;;;;;18.30;17.15;;;15.90;99.90;;;;;;5073769;28;20036;-80
2021/10/02 09:08:56;;;;;;;18.70;17.60;;;15.90;99.90;;;;;;5075105;28;20028;-72
2021/10/02 09:11:27;;;;;;;18.67;17.58;;;15.90;99.90;;;;;;5073749;28;20025;-79
2021/10/02 09:13:55;;;;;;;19.23;18.23;;;15.90;99.90;;;;;;5073654;28;20447;-77
2021/10/02 09:16:22;;;;;;;19.45;18.30;;;16.00;99.90;;;;;;5074614;28;20147;-76
2021/10/02 09:18:50;;;;;;;19.02;17.83;;;15.90;99.90;;;;;;5073663;28;20032;-74
2021/10/02 09:21:17;;;;;;;18.00;16.95;;;15.80;99.90;;;;;;5073512;28;20032;-74
2021/10/02 09:23:48;;;;;;;16.90;16.00;;;15.80;99.90;;;;;;5073576;28;20028;-77
2021/10/02 09:26:16;;;;;;;17.42;16.50;;;15.70;99.90;;;;;;5073392;28;20086;-74
2021/10/02 09:28:48;;;;;;;17.55;16.55;;;15.70;99.90;;;;;;5074651;28;20032;-76
2021/10/02 09:31:19;;;;;;;17.45;16.48;;;15.60;99.90;;;;;;5073375;28;20462;-76
2021/10/02 09:33:47;;;;;;;18.27;17.20;;;15.70;99.90;;;;;;5074182;28;20052;-75
2021/10/02 09:36:22;;;;;;;18.05;17.05;;;15.60;99.90;;;;;;5074373;28;20032;-76
2021/10/02 09:38:52;;;;;;;17.75;16.75;;;15.70;99.90;;;;;;5073210;28;20116;-76
2021/10/02 09:41:21;;;;;;;18.13;17.13;;;15.70;99.90;;;;;;5073331;28;20070;-76
2021/10/02 09:43:51;;;;;;;17.45;16.52;;;15.60;99.90;;;;;;5073215;28;20029;-76
2021/10/02 09:46:32;;;;;;;18.92;17.63;;;15.60;99.90;;;;;;5074545;28;20078;-76
2021/10/02 09:49:00;;;;;;;19.85;18.50;;;15.70;99.90;;;;;;5072966;28;20039;-77
2021/10/02 09:51:45;;;;;;;20.40;19.13;;;15.70;99.90;;;;;;5074299;28;20484;-78
2021/10/02 09:54:40;;;;;;;20.02;18.83;;;15.70;99.90;;;;;;5072718;28;20155;-77
2021/10/02 09:57:16;;;;;;;23.02;21.55;;;15.80;99.90;;;;;;5069497;28;20044;-75
2021/10/02 09:59:44;;;;;;;21.90;20.60;;;15.80;99.90;;;;;;5074854;28;20085;-77
2021/10/02 10:02:28;;;;;;;21.05;19.75;;;15.90;99.90;;;;;;5074047;28;20020;-72
2021/10/02 10:04:57;;;;;;;20.63;19.42;;;16.00;99.90;;;;;;5072665;28;20086;-75
2021/10/02 10:07:24;;;;;;;20.67;19.38;;;16.10;99.90;;;;;;5072548;28;20033;-75
2021/10/02 10:10:02;;;;;;;21.75;20.45;;;16.10;99.90;;;;;;5073663;28;20031;-75
2021/10/02 10:12:30;;;;;;;21.17;19.83;;;16.10;99.90;;;;;;5072337;28;20028;-75
2021/10/02 10:14:58;;;;;;;21.95;20.40;;;16.20;99.90;;;;;;5073635;28;20435;-75
2021/10/02 10:17:29;;;;;;;20.95;19.60;;;16.10;99.90;;;;;;5072212;28;20401;-75
2021/10/02 10:20:03;;;;;;;20.23;19.00;;;16.10;99.90;;;;;;5072347;28;20503;-74
2021/10/02 10:22:31;;;;;;;20.52;19.27;;;16.00;99.90;;;;;;5072512;28;20025;-74
2021/10/02 10:25:08;;;;;;;21.20;19.88;;;15.90;99.90;;;;;;5073386;28;20086;-74
2021/10/02 10:27:37;;;;;;;21.73;20.25;;;15.90;99.90;;;;;;5072335;28;20068;-74
2021/10/02 10:30:18;;;;;;;22.10;20.55;;;15.90;99.90;;;;;;5072141;28;20127;-73
2021/10/02 10:33:08;;;;;;;22.08;20.67;;;15.90;99.90;;;;;;5072423;28;20051;-74
2021/10/02 10:35:41;;;;;;;21.10;19.88;;;15.90;99.90;;;;;;5073470;28;20446;-73
2021/10/02 10:38:12;;;;;;;21.35;19.95;;;16.00;99.90;;;;;;5072375;28;20094;-74
2021/10/02 10:40:40;;;;;;;21.17;19.85;;;15.90;99.90;;;;;;5072137;28;20038;-73
2021/10/02 10:43:08;;;;;;;21.13;19.92;;;15.90;99.90;;;;;;5073415;28;20033;-74
2021/10/02 10:45:36;;;;;;;21.17;19.90;;;16.00;99.90;;;;;;5072645;28;20044;-74
2021/10/02 10:48:08;;;;;;;22.00;20.42;;;15.90;99.90;;;;;;5071959;28;20066;-75
2021/10/02 10:50:38;;;;;;;20.70;19.50;;;15.90;99.90;;;;;;5072066;28;20120;-74
2021/10/02 10:53:07;;;;;;;20.52;19.35;;;15.90;99.90;;;;;;5071839;28;20021;-73
2021/10/02 10:55:55;;;;;;;20.70;19.30;;;15.80;99.90;;;;;;5073054;28;20477;-75
2021/10/02 10:58:32;;;;;;;20.05;18.85;;;15.80;99.90;;;;;;5071778;28;20159;-75
2021/10/02 11:01:02;;;;;;;18.77;17.70;;;15.80;99.90;;;;;;5071754;28;20020;-75
2021/10/02 11:03:45;;;;;;;19.77;18.67;;;15.80;99.90;;;;;;5073037;28;20021;-74
2021/10/02 11:06:14;;;;;;;21.02;19.60;;;15.80;99.90;;;;;;5071703;28;20397;-74
2021/10/02 11:09:07;;;;;;;20.77;19.48;;;15.90;99.90;;;;;;5071640;28;20091;-74
2021/10/02 11:11:53;;;;;;;20.85;19.48;;;15.90;99.90;;;;;;5071565;28;20032;-75
2021/10/02 11:14:24;;;;;;;19.10;17.85;;;15.90;99.90;;;;;;5071542;28;20115;-74
2021/10/02 11:17:03;;;;;;;19.02;17.92;;;15.80;99.90;;;;;;5071192;28;20048;-74
2021/10/02 11:19:39;;;;;;;18.52;17.42;;;15.80;99.90;;;;;;5072849;28;20029;-73
2021/10/02 11:23:07;;;;;;;18.80;17.60;;;15.80;99.90;;;;;;5072897;28;20023;-74
2021/10/02 11:25:36;;;;;;;18.52;17.50;;;15.90;99.90;;;;;;5058147;28;20033;-76
2021/10/02 11:28:22;;;;;;;19.77;18.45;;;15.80;99.90;;;;;;5071499;28;20025;-76
2021/10/02 11:30:52;;;;;;;19.60;18.33;;;15.70;99.90;;;;;;5072750;28;20025;-74
2021/10/02 11:33:45;;;;;;;18.42;17.52;;;15.70;99.90;;;;;;5055183;28;20052;-74
2021/10/02 11:39:29;;;;;;;19.05;17.98;;;15.60;99.90;;;;;;5072816;28;20100;-73
2021/10/02 11:42:12;;;;;;;19.27;18.08;;;15.50;99.90;;;;;;5072620;28;20477;-73
2021/10/02 11:44:48;;;;;;;18.85;17.80;;;15.60;99.90;;;;;;5071357;28;20017;-73
2021/10/02 11:47:38;;;;;;;18.77;17.67;;;15.60;99.90;;;;;;5072668;28;20036;-74
2021/10/02 11:50:08;;;;;;;20.05;18.50;;;15.50;99.90;;;;;;5071309;28;20119;-74
2021/10/02 11:52:50;;;;;;;19.23;18.13;;;15.40;99.90;;;;;;5073108;28;20020;-75
2021/10/02 11:55:41;;;;;;;20.25;18.95;;;15.40;99.90;;;;;;5072748;28;20089;-72
2021/10/02 11:58:11;;;;;;;20.00;18.88;;;15.30;99.90;;;;;;5076445;28;20060;-74
2021/10/02 12:00:51;;;;;;;19.65;18.45;;;15.30;99.90;;;;;;5076349;28;20104;-74
2021/10/02 12:03:29;;;;;;;20.00;18.80;;;15.20;99.90;;;;;;5076496;28;20021;-74
2021/10/02 12:05:59;;;;;;;20.17;18.98;;;15.20;99.90;;;;;;5076367;28;20040;-74
2021/10/02 12:08:27;;;;;;;20.05;18.67;;;15.20;99.90;;;;;;5076673;28;20017;-74
2021/10/02 12:10:56;;;;;;;19.88;18.77;;;15.20;99.90;;;;;;5076218;28;20020;-74
2021/10/02 12:13:37;;;;;;;20.27;19.08;;;15.10;99.90;;;;;;5074885;28;20334;-73
2021/10/02 12:16:08;;;;;;;19.50;18.40;;;15.00;99.90;;;;;;5072235;28;20052;-73
2021/10/02 12:18:48;;;;;;;19.23;18.05;;;15.10;99.90;;;;;;5075031;28;20028;-72
2021/10/02 12:21:37;;;;;;;20.00;18.80;;;14.90;99.90;;;;;;5074714;28;20386;-73
2021/10/02 12:24:10;;;;;;;19.52;18.50;;;14.90;99.90;;;;;;5076071;28;20443;-73
2021/10/02 12:26:44;;;;;;;19.17;18.17;;;15.00;99.90;;;;;;5075788;28;20024;-73
2021/10/02 12:29:15;;;;;;;19.77;18.67;;;14.90;99.90;;;;;;5075827;28;20093;-75
2021/10/02 12:31:53;;;;;;;20.23;18.92;;;14.90;99.90;;;;;;5074531;28;20073;-74
2021/10/02 12:34:27;;;;;;;21.42;19.90;;;14.90;99.90;;;;;;5075845;28;20029;-73
2021/10/02 12:37:16;;;;;;;20.80;19.48;;;14.90;99.90;;;;;;5075872;28;20029;-73
2021/10/02 12:40:16;;;;;;;21.80;20.20;;;14.90;99.90;;;;;;5074426;28;20452;-72
2021/10/02 12:42:45;;;;;;;20.45;18.95;;;14.80;99.90;;;;;;5073676;28;20090;-74
2021/10/02 12:45:12;;;;;;;21.08;19.58;;;14.80;99.90;;;;;;5075723;28;20021;-73
2021/10/02 12:47:41;;;;;;;19.70;18.17;;;14.80;99.90;;;;;;5074218;28;20044;-73
2021/10/02 12:50:14;;;;;;;20.70;19.45;;;14.80;99.90;;;;;;5074160;28;20033;-73
2021/10/02 12:52:42;;;;;;;20.70;19.30;;;14.80;99.90;;;;;;5074061;28;20448;-73
2021/10/02 12:55:17;;;;;;;20.73;19.42;;;14.80;99.90;;;;;;5073996;28;20025;-73
2021/10/02 12:57:46;;;;;;;20.45;19.17;;;14.70;99.90;;;;;;5075193;28;20063;-74
2021/10/02 13:00:18;;;;;;;19.92;18.83;;;14.70;99.90;;;;;;5075260;28;20028;-73
2021/10/02 13:02:56;;;;;;;21.00;19.75;;;14.70;99.90;;;;;;5073922;28;20485;-73
2021/10/02 13:05:26;;;;;;;20.63;19.10;;;14.60;99.90;;;;;;5073951;28;20431;-73
2021/10/02 13:07:56;;;;;;;19.23;18.13;;;14.60;99.90;;;;;;5074538;28;20025;-73
2021/10/02 13:10:37;;;;;;;19.90;18.70;;;14.50;99.90;;;;;;5075131;28;20473;-73
2021/10/02 13:13:07;;;;;;;18.38;17.38;;;14.40;99.90;;;;;;5075055;28;20103;-74
2021/10/02 13:15:57;;;;;;;18.50;17.40;;;14.30;99.90;;;;;;5074866;28;20048;-73
2021/10/02 13:18:25;;;;;;;18.75;17.65;;;14.30;99.90;;;;;;5075008;28;20035;-74
2021/10/02 13:21:07;;;;;;;19.00;17.90;;;14.30;99.90;;;;;;5073822;28;20029;-73
2021/10/02 13:23:37;;;;;;;19.48;18.48;;;14.30;99.90;;;;;;5074829;28;20020;-74
2021/10/02 13:26:18;;;;;;;18.63;17.58;;;14.20;99.90;;;;;;5074985;28;20016;-72
2021/10/02 13:28:48;;;;;;;;;;;14.20;99.90;;;;;;5075174;28;20031;-74
2021/10/02 13:31:15;;;;;;;18.90;17.80;;;14.30;99.90;;;;;;5074774;28;20364;-74
2021/10/02 13:33:56;;;;;;;19.23;17.98;;;14.10;99.90;;;;;;5073387;28;20028;-74
2021/10/02 13:36:29;;;;;;;18.90;17.80;;;15.00;99.90;;;;;;5073286;28;20388;-74
2021/10/02 13:39:13;;;;;;;19.38;18.27;;;14.10;99.90;;;;;;5073270;28;20021;-74
2021/10/02 13:41:46;;;;;;;18.90;17.90;;;14.10;99.90;;;;;;5073199;28;20033;-75
2021/10/02 13:44:28;;;;;;;18.73;17.75;;;14.10;99.90;;;;;;5074533;28;20013;-74
2021/10/02 13:46:59;;;;;;;19.60;18.27;;;14.00;99.90;;;;;;5074475;28;20020;-74
2021/10/02 13:49:28;;;;;;;19.33;18.13;;;14.00;99.90;;;;;;5074448;28;20051;-74
2021/10/02 13:51:56;;;;;;;19.60;18.40;;;14.00;99.90;;;;;;5074266;28;20028;-74